OBBI/BAH METAR and TAF weather

Enter ICAO airport designator
Station Type Date Time Source
OBBI METAR 2019/02/16 17:30 UTC NOAA

OBBI 161730Z 29006KT 260V320 7000 NSC 20/18 Q1015 NOSIG


Station Type Date Time Source
OBBI Decoded METAR 2019/02/16 17:30 UTC NOAA

Bahrain International Airport , Bahrain (OBBI) 26-16N 050-39E 2M
Feb 16, 2019 - 12:30 PM EST / 2019.02.16 1730 UTC
Wind: from the WNW (290 degrees) at 7 MPH (6 KT) (direction variable):0
Visibility: 4 mile(s):0
Temperature: 68 F (20 C)
Dew Point: 64 F (18 C)
Relative Humidity: 88%
Pressure (altimeter): 29.97 in. Hg (1015 hPa)
ob: OBBI 161730Z 29006KT 260V320 7000 NSC 20/18 Q1015 NOSIG
cycle: 17

Station Type Date Time Source
OBBI TAF 2019/02/16 18:28 UTC NOAA

TAF OBBI 161700Z 1618/1800 32010KT 8000 NSC
BECMG 1620/1622 34015G25KT SCT025


Example: see airport list